Date,TemperatureHighF,TemperatureAvgF,TemperatureLowF,DewpointHighF,DewpointAvgF,DewpointLowF,HumidityHigh,HumidityAvg,HumidityLow,PressureMaxIn,PressureMinIn,WindSpeedMaxMPH,WindSpeedAvgMPH,GustSpeedMaxMPH,PrecipitationSumIn
2013-1-1,18.4,16.6,14.4,14.6,10.1,6.4,85,76,66,30.20,30.05,14,10,0,0.00
2013-1-2,25.3,21.5,18.8,19.9,17.1,14.8,88,83,76,30.13,30.03,14,7,0,0.00
2013-1-3,26.9,23.4,20.8,21.5,18.7,15.3,88,82,77,30.08,29.93,22,10,0,0.00
2013-1-4,32.4,25.5,19.9,26.6,20.4,15.3,88,81,76,30.13,29.89,23,11,0,0.00
2013-1-5,34.8,24.7,11.1,30.9,21.6,9.5,95,88,77,30.19,29.82,14,4,0,0.00
2013-1-6,30.5,24.2,9.9,28.3,20.0,8.0,94,84,73,30.25,29.82,19,7,0,0.00
2013-1-7,35.3,29.3,12.2,28.3,22.2,10.1,93,75,60,30.24,29.88,19,12,0,0.00
2013-1-8,37.6,25.3,26.2,35.5,-0.1,-99.9,93,67,82,30.11,29.82,12,-225,0,0.00
2013-1-9,38.4,23.3,30.7,30.6,-14.6,-99.9,87,51,66,30.43,29.77,18,-328,0,0.00
2013-1-10,39.3,32.5,20.6,35.2,29.0,19.1,96,87,75,30.50,29.98,6,2,0,0.07
2013-1-11,41.4,38.8,35.4,41.4,38.4,34.2,100,98,96,29.98,29.57,9,4,0,0.30
2013-1-12,44.6,36.3,26.2,42.1,32.7,20.6,100,87,76,29.96,29.52,19,10,0,0.00
2013-1-13,26.4,23.9,18.0,22.0,19.1,14.0,89,82,75,30.09,29.89,12,5,0,0.00
2013-1-14,22.0,16.6,12.7,14.6,10.9,6.8,88,78,68,30.40,30.11,15,10,0,0.00
2013-1-15,27.6,20.9,13.0,19.2,13.7,6.4,82,73,64,30.42,29.99,15,8,0,0.00
2013-1-16,30.4,26.4,20.1,26.3,19.9,12.6,91,76,62,30.06,29.64,23,13,0,0.00
2013-1-17,20.1,12.8,9.5,12.3,3.3,-1.0,77,66,55,30.39,30.06,14,11,0,0.00
2013-1-18,29.8,19.3,10.8,26.4,14.7,1.4,94,83,62,30.40,29.76,11,3,0,0.00
2013-1-19,37.1,27.1,14.0,33.6,24.1,4.7,95,88,66,29.82,29.47,24,7,0,0.06
2013-1-20,14.0,10.1,5.2,4.1,1.4,-1.6,76,68,60,30.21,29.74,25,14,0,0.00
2013-1-21,5.2,-0.5,-6.9,-1.8,-8.8,-15.8,77,67,54,30.23,30.07,16,14,0,0.00
2013-1-22,2.6,-1.9,-7.7,-7.3,-9.9,-13.5,78,68,59,30.33,30.22,13,9,0,0.00
2013-1-23,10.6,4.3,-3.0,5.5,-2.0,-9.1,84,75,66,30.42,30.09,19,11,0,0.00
2013-1-24,12.2,7.6,3.0,7.2,2.1,-1.0,84,78,71,30.70,30.41,14,5,0,0.00
2013-1-25,17.2,14.2,10.8,15.3,12.1,7.2,93,91,85,30.41,29.95,8,3,0,0.00
2013-1-26,23.8,16.4,10.8,17.4,12.9,8.2,99,86,74,30.40,30.13,10,3,0,0.02
2013-1-27,25.0,5.5,20.5,23.3,-70.3,-99.9,94,22,77,30.36,29.91,9,-748,0,0.00
2013-1-28,-200.0,0.0,200.0,-99.9,-99.9,-99.9,0,0,100,29.91,29.78,0,-999,0,0.00
2013-1-30,26.6,7.1,20.4,25.9,-63.9,-99.9,97,28,96,29.49,29.26,21,-702,0,0.01
2013-1-31,14.3,5.0,11.6,7.5,-59.9,-99.9,80,28,71,29.99,29.41,16,-619,0,0.00